Time;durP1;ratioP1;P1;durP2;ratioP2;P2;SDS_P1;SDS_P2;PMS_P1;PMS_P2;Temp;Humidity;BMP_temperature;BMP_pressure;BME280_temperature;BME280_humidity;BME280_pressure;Samples;Min_cycle;Max_cycle;Signal;HPM_P1;HPM_P2
2021/07/14 00:01:24;;;;;;;1.88;1.52;;;13.40;99.90;;;;;;4902411;29;20394;-81
2021/07/14 00:03:53;;;;;;;3.40;1.83;;;13.40;99.90;;;;;;4917891;29;20059;-81
2021/07/14 00:07:11;;;;;;;5.60;1.58;;;13.40;99.90;;;;;;5136774;27;20127;-79
2021/07/14 00:09:39;;;;;;;6.25;1.75;;;13.30;99.90;;;;;;5088243;28;20059;-79
2021/07/14 00:12:09;;;;;;;4.07;2.30;;;13.30;99.90;;;;;;5069312;28;20052;-79
2021/07/14 00:22:36;;;;;;;3.40;1.95;;;13.20;99.90;;;;;;5109265;28;20052;-82
2021/07/14 00:25:06;;;;;;;2.55;2.20;;;13.20;99.90;;;;;;5110267;28;20048;-81
2021/07/14 00:27:39;;;;;;;4.00;2.28;;;13.20;99.90;;;;;;5096590;28;20036;-82
2021/07/14 00:30:12;;;;;;;2.80;2.60;;;13.10;99.90;;;;;;5106213;28;20055;-81
2021/07/14 00:32:39;;;;;;;2.60;2.40;;;13.10;99.90;;;;;;5107048;28;20055;-81
2021/07/14 00:35:14;;;;;;;2.38;2.17;;;13.10;99.90;;;;;;5128889;27;20054;-81
2021/07/14 00:37:41;;;;;;;8.68;3.13;;;13.00;99.90;;;;;;5149366;27;20047;-81
2021/07/14 00:40:11;;;;;;;3.08;2.50;;;13.00;99.90;;;;;;5148441;27;20526;-82
2021/07/14 00:42:39;;;;;;;2.67;2.47;;;13.10;99.90;;;;;;5129410;27;20045;-82
2021/07/14 00:45:09;;;;;;;3.42;3.10;;;13.10;99.90;;;;;;5148472;27;20587;-82
2021/07/14 00:47:41;;;;;;;2.30;2.10;;;13.20;99.90;;;;;;5148611;27;20039;-82
2021/07/14 00:50:10;;;;;;;2.53;2.33;;;13.20;99.90;;;;;;5148296;27;20051;-82
2021/07/14 00:52:37;;;;;;;2.25;2.05;;;13.20;99.90;;;;;;5130092;27;20043;-82
2021/07/14 00:55:06;;;;;;;2.90;2.63;;;13.20;99.90;;;;;;5127648;28;20031;-81
2021/07/14 00:57:34;;;;;;;2.45;2.25;;;13.30;99.90;;;;;;5128408;28;20044;-82
2021/07/14 01:00:05;;;;;;;4.00;2.55;;;13.30;99.90;;;;;;5127269;27;20058;-81
2021/07/14 01:02:33;;;;;;;3.63;3.33;;;13.20;99.90;;;;;;5148850;27;20058;-81
2021/07/14 01:05:29;;;;;;;3.50;3.20;;;13.20;99.90;;;;;;5148724;27;20043;-82
2021/07/14 01:08:20;;;;;;;3.95;3.55;;;13.20;99.90;;;;;;5112538;27;20042;-82
2021/07/14 01:10:55;;;;;;;3.60;3.08;;;13.20;99.90;;;;;;5129776;27;20034;-82
2021/07/14 01:14:00;;;;;;;7.43;4.00;;;13.20;99.90;;;;;;5147988;27;20050;-82
2021/07/14 01:16:38;;;;;;;3.75;3.45;;;13.20;99.90;;;;;;5040885;28;20056;-82
2021/07/14 01:19:33;;;;;;;3.10;2.90;;;13.20;99.90;;;;;;5104424;28;20054;-82
2021/07/14 01:22:12;;;;;;;6.28;4.53;;;13.20;99.90;;;;;;5094243;28;20055;-81
2021/07/14 01:24:40;;;;;;;3.30;3.05;;;13.20;99.90;;;;;;5113920;28;20063;-82
2021/07/14 01:27:16;;;;;;;4.45;3.42;;;13.10;99.90;;;;;;5113398;28;20052;-82
2021/07/14 01:29:54;;;;;;;4.00;3.17;;;13.20;99.90;;;;;;5122270;27;20044;-82
2021/07/14 01:32:25;;;;;;;4.53;4.03;;;13.20;99.90;;;;;;5134081;27;20051;-82
2021/07/14 01:34:58;;;;;;;5.07;4.57;;;13.20;99.90;;;;;;5115896;27;20039;-82
2021/07/14 01:37:27;;;;;;;5.40;3.05;;;13.10;99.90;;;;;;5134343;27;20043;-82
2021/07/14 01:39:58;;;;;;;5.25;3.33;;;13.10;99.90;;;;;;5115497;27;20047;-82
2021/07/14 01:42:29;;;;;;;4.32;3.83;;;13.10;99.90;;;;;;5133737;27;20051;-82
2021/07/14 01:45:00;;;;;;;5.88;5.25;;;13.00;99.90;;;;;;5133418;27;20043;-82
2021/07/14 01:47:29;;;;;;;;;;;13.10;99.90;;;;;;5134168;27;20054;-82
2021/07/14 01:49:58;;;;;;;4.75;4.28;;;13.20;99.90;;;;;;5133643;27;20284;-82
2021/07/14 01:52:28;;;;;;;4.03;3.63;;;13.20;99.90;;;;;;5133139;27;20384;-82
2021/07/14 01:55:01;;;;;;;4.45;3.90;;;13.20;99.90;;;;;;5113788;27;20055;-82
2021/07/14 01:57:33;;;;;;;4.47;4.07;;;13.20;99.90;;;;;;5134072;27;20400;-82
2021/07/14 02:00:04;;;;;;;7.95;3.80;;;13.20;99.90;;;;;;5096153;27;20039;-82
2021/07/14 02:02:50;;;;;;;5.78;3.78;;;13.20;99.90;;;;;;5133536;27;20039;-82
2021/07/14 02:05:20;;;;;;;5.65;4.07;;;13.20;99.90;;;;;;5133003;27;20077;-82
2021/07/14 02:07:49;;;;;;;3.90;3.40;;;13.20;99.90;;;;;;5125549;27;20400;-82
2021/07/14 02:10:17;;;;;;;6.18;4.18;;;13.20;99.90;;;;;;5101125;27;20054;-81
2021/07/14 02:12:48;;;;;;;4.32;3.92;;;13.20;99.90;;;;;;5115053;27;20039;-82
2021/07/14 02:15:16;;;;;;;5.65;4.40;;;13.10;99.90;;;;;;5132709;27;20039;-82
2021/07/14 02:17:54;;;;;;;5.05;4.45;;;13.10;99.90;;;;;;5115430;27;20035;-82
2021/07/14 02:20:22;;;;;;;5.97;5.38;;;13.00;99.90;;;;;;5132953;27;20047;-82
2021/07/14 02:22:51;;;;;;;7.28;5.13;;;13.00;99.90;;;;;;5133144;27;20044;-82
2021/07/14 02:25:20;;;;;;;4.82;4.43;;;13.00;99.90;;;;;;5133072;27;20050;-82
2021/07/14 02:27:48;;;;;;;4.50;4.10;;;13.00;99.90;;;;;;5132831;27;20408;-81
2021/07/14 02:30:19;;;;;;;3.40;3.05;;;13.00;99.90;;;;;;5130738;27;20062;-82
2021/07/14 02:33:07;;;;;;;;;;;13.00;99.90;;;;;;5098675;27;20055;-82
2021/07/14 02:35:37;;;;;;;4.38;3.97;;;13.00;99.90;;;;;;5132717;27;20268;-82
2021/07/14 02:38:24;;;;;;;5.30;3.80;;;13.00;99.90;;;;;;5132862;27;20050;-82
2021/07/14 02:41:11;;;;;;;6.53;4.05;;;13.00;99.90;;;;;;5133112;27;20396;-82
2021/07/14 02:43:44;;;;;;;4.80;4.35;;;13.00;99.90;;;;;;5131651;27;20046;-82
2021/07/14 02:46:23;;;;;;;5.45;4.95;;;13.00;99.90;;;;;;5114220;27;20523;-83
2021/07/14 02:48:54;;;;;;;5.85;4.78;;;13.00;99.90;;;;;;5114135;27;20047;-82
2021/07/14 02:51:27;;;;;;;4.95;4.20;;;13.00;99.90;;;;;;5112887;27;20058;-82
2021/07/14 02:53:59;;;;;;;5.32;4.50;;;13.10;99.90;;;;;;5132645;27;20039;-82
2021/07/14 02:56:29;;;;;;;6.20;4.32;;;13.00;99.90;;;;;;5112718;27;20496;-82
2021/07/14 02:59:01;;;;;;;5.67;4.07;;;13.00;99.90;;;;;;5113471;27;20043;-82
2021/07/14 03:01:30;;;;;;;8.07;4.82;;;13.00;99.90;;;;;;5132420;27;20047;-82
2021/07/14 03:03:59;;;;;;;4.38;3.70;;;13.00;99.90;;;;;;5132232;27;20051;-82
2021/07/14 03:06:34;;;;;;;4.82;3.80;;;13.10;99.90;;;;;;5113616;27;20046;-82
2021/07/14 03:09:04;;;;;;;4.45;4.05;;;13.10;99.90;;;;;;5131260;27;20051;-82
2021/07/14 03:11:38;;;;;;;3.85;3.53;;;13.10;99.90;;;;;;5095747;27;20050;-82
2021/07/14 03:14:09;;;;;;;6.22;4.88;;;13.20;99.90;;;;;;5112952;27;20447;-82
2021/07/14 03:16:38;;;;;;;5.20;4.18;;;13.20;99.90;;;;;;5132679;27;20050;-82
2021/07/14 03:19:10;;;;;;;4.18;3.67;;;13.20;99.90;;;;;;5095868;27;20515;-82
2021/07/14 03:21:39;;;;;;;4.75;4.05;;;13.20;99.90;;;;;;5132485;27;20036;-82
2021/07/14 03:24:08;;;;;;;5.00;4.50;;;13.10;99.90;;;;;;5079041;27;20535;-82
2021/07/14 03:26:38;;;;;;;5.00;4.32;;;13.10;99.90;;;;;;5112619;27;20046;-82
2021/07/14 03:29:07;;;;;;;5.80;4.32;;;13.10;99.90;;;;;;5131488;27;20034;-82
2021/07/14 03:31:36;;;;;;;5.75;4.10;;;13.00;99.90;;;;;;5131336;27;20054;-82
2021/07/14 03:34:04;;;;;;;4.78;4.05;;;13.00;99.90;;;;;;5131723;27;20050;-82
2021/07/14 03:36:33;;;;;;;4.78;4.38;;;13.10;99.90;;;;;;5132353;27;20047;-81
2021/07/14 03:39:04;;;;;;;5.38;3.67;;;13.10;99.90;;;;;;5112969;27;20058;-82
2021/07/14 03:41:32;;;;;;;4.53;3.63;;;13.20;99.90;;;;;;5113351;27;20039;-82
2021/07/14 03:44:01;;;;;;;4.10;3.60;;;13.20;99.90;;;;;;5111662;27;20050;-82
2021/07/14 03:46:29;;;;;;;3.78;3.10;;;13.20;99.90;;;;;;5131293;27;20047;-82
2021/07/14 03:48:57;;;;;;;5.93;3.42;;;13.20;99.90;;;;;;5113697;27;20039;-82
2021/07/14 03:51:26;;;;;;;6.85;5.50;;;13.20;99.90;;;;;;5131387;27;20043;-82
2021/07/14 03:53:55;;;;;;;8.23;4.72;;;13.20;99.90;;;;;;5113401;27;20622;-82
2021/07/14 03:56:26;;;;;;;6.30;3.85;;;13.20;99.90;;;;;;5131453;27;20424;-82
2021/07/14 03:58:56;;;;;;;5.90;4.55;;;13.20;99.90;;;;;;5130296;27;20050;-82
2021/07/14 04:01:25;;;;;;;6.38;4.10;;;13.10;99.90;;;;;;5095416;28;20055;-82
2021/07/14 04:03:54;;;;;;;8.20;5.15;;;13.10;99.90;;;;;;5131466;28;20373;-82
2021/07/14 04:06:24;;;;;;;6.57;4.15;;;13.00;99.90;;;;;;5130906;28;20511;-82
2021/07/14 04:09:54;;;;;;;4.60;3.40;;;13.00;99.90;;;;;;5115086;28;20047;-86
2021/07/14 04:12:25;;;;;;;5.18;4.50;;;13.00;99.90;;;;;;5050128;28;20051;-86
2021/07/14 04:14:53;;;;;;;5.40;3.60;;;12.90;99.90;;;;;;5058505;28;20554;-85
2021/07/14 04:17:23;;;;;;;4.57;4.15;;;12.90;99.90;;;;;;5094229;28;20054;-85
2021/07/14 04:20:01;;;;;;;6.28;5.45;;;12.90;99.90;;;;;;5093020;28;20044;-86
2021/07/14 04:22:33;;;;;;;6.20;4.82;;;12.80;99.90;;;;;;5075568;28;20051;-86
2021/07/14 04:25:07;;;;;;;5.25;4.38;;;12.80;99.90;;;;;;5093129;28;20043;-87
2021/07/14 04:28:06;;;;;;;5.45;4.30;;;12.80;99.90;;;;;;5099066;28;20040;-86
2021/07/14 04:30:35;;;;;;;4.75;3.45;;;12.90;99.90;;;;;;5091622;28;20050;-86
2021/07/14 04:33:03;;;;;;;8.00;5.93;;;12.90;99.90;;;;;;5111634;28;20048;-85
2021/07/14 04:35:31;;;;;;;8.18;6.47;;;12.90;99.90;;;;;;5105141;28;20035;-85
2021/07/14 04:37:58;;;;;;;8.38;5.82;;;12.90;99.90;;;;;;5131696;28;20043;-83
2021/07/14 04:40:29;;;;;;;11.38;5.43;;;13.00;99.90;;;;;;5113041;28;20122;-86
2021/07/14 04:42:57;;;;;;;5.28;3.90;;;13.00;99.90;;;;;;5095434;28;20051;-83
2021/07/14 04:45:25;;;;;;;5.10;3.80;;;13.00;99.90;;;;;;5112605;28;20050;-81
2021/07/14 04:47:53;;;;;;;5.35;3.92;;;13.00;99.90;;;;;;5131038;28;20043;-81
2021/07/14 04:50:21;;;;;;;5.78;4.00;;;12.90;99.90;;;;;;5130901;28;20629;-82
2021/07/14 04:52:49;;;;;;;5.20;4.57;;;12.90;99.90;;;;;;5133626;27;20047;-81
2021/07/14 04:55:17;;;;;;;8.18;5.78;;;13.00;99.90;;;;;;5116337;27;20043;-82
2021/07/14 04:57:46;;;;;;;6.45;5.70;;;13.00;99.90;;;;;;5135506;27;20054;-81
2021/07/14 05:00:16;;;;;;;6.85;4.97;;;13.00;99.90;;;;;;5134038;27;20055;-79
2021/07/14 05:02:45;;;;;;;6.57;4.07;;;13.00;99.90;;;;;;5135148;27;20054;-81
2021/07/14 05:05:16;;;;;;;3.47;2.65;;;13.00;99.90;;;;;;5116788;27;20058;-83
2021/07/14 05:07:47;;;;;;;5.05;2.92;;;13.00;99.90;;;;;;5134618;27;20053;-81
2021/07/14 05:10:16;;;;;;;5.78;3.38;;;13.00;99.90;;;;;;5134236;27;20039;-81
2021/07/14 05:12:45;;;;;;;7.13;3.28;;;13.00;99.90;;;;;;5098940;27;20047;-80
2021/07/14 05:15:13;;;;;;;3.22;2.92;;;13.00;99.90;;;;;;5115581;27;20042;-82
2021/07/14 05:17:41;;;;;;;2.70;2.45;;;13.00;99.90;;;;;;5098735;27;20047;-83
2021/07/14 05:20:09;;;;;;;2.92;2.55;;;13.00;99.90;;;;;;5098797;27;20046;-82
2021/07/14 05:22:37;;;;;;;2.70;2.10;;;13.00;99.90;;;;;;5115813;27;20043;-83
2021/07/14 05:25:10;;;;;;;3.55;2.17;;;13.00;99.90;;;;;;5098659;27;20062;-85
2021/07/14 05:27:38;;;;;;;2.33;2.13;;;13.00;99.90;;;;;;5082271;27;20044;-84
2021/07/14 05:30:08;;;;;;;1.50;1.40;;;13.00;99.90;;;;;;5115078;27;20464;-85
2021/07/14 05:32:37;;;;;;;2.10;1.90;;;13.00;99.90;;;;;;5134850;27;20423;-84
2021/07/14 05:35:08;;;;;;;2.50;2.33;;;13.00;99.90;;;;;;5135911;27;20506;-86
2021/07/14 05:37:36;;;;;;;3.25;1.73;;;13.00;99.90;;;;;;5135011;27;20051;-83
2021/07/14 05:40:05;;;;;;;1.67;1.58;;;13.00;99.90;;;;;;5133891;27;20055;-84
2021/07/14 05:42:38;;;;;;;3.40;1.77;;;13.10;99.90;;;;;;5134118;27;20408;-85
2021/07/14 05:45:06;;;;;;;1.70;1.60;;;13.10;99.90;;;;;;5134216;27;20060;-84
2021/07/14 05:47:34;;;;;;;2.22;2.00;;;13.10;99.90;;;;;;5133732;27;20051;-84
2021/07/14 05:50:05;;;;;;;4.35;3.05;;;13.20;99.90;;;;;;5133651;27;20043;-86
2021/07/14 05:52:33;;;;;;;1.77;1.30;;;13.20;99.90;;;;;;5115434;27;20051;-84
2021/07/14 05:55:05;;;;;;;1.60;1.50;;;13.10;99.90;;;;;;5133926;27;20042;-85
2021/07/14 05:57:33;;;;;;;1.70;1.60;;;13.10;99.90;;;;;;5134792;27;20047;-86
2021/07/14 06:00:03;;;;;;;2.90;1.92;;;13.10;99.90;;;;;;5113723;27;20073;-84
2021/07/14 06:02:35;;;;;;;2.67;1.45;;;13.00;99.90;;;;;;5114918;27;20066;-85
2021/07/14 06:05:07;;;;;;;2.97;1.70;;;13.00;99.90;;;;;;5134355;27;20043;-86
2021/07/14 06:07:34;;;;;;;5.72;1.92;;;13.00;99.90;;;;;;5110793;28;20046;-86
2021/07/14 06:10:04;;;;;;;1.75;1.65;;;13.00;99.90;;;;;;5112420;28;20043;-86
2021/07/14 06:12:41;;;;;;;2.03;1.40;;;13.00;99.90;;;;;;5113374;28;20044;-86
2021/07/14 06:15:17;;;;;;;1.67;1.58;;;13.00;99.90;;;;;;5094426;28;20050;-86
2021/07/14 06:17:48;;;;;;;4.72;2.83;;;13.00;99.90;;;;;;5121508;27;20035;-84
2021/07/14 06:20:16;;;;;;;4.65;1.80;;;13.00;99.90;;;;;;5113591;27;20043;-84
2021/07/14 06:22:44;;;;;;;1.30;1.20;;;13.00;99.90;;;;;;5132893;27;20039;-83
2021/07/14 06:25:16;;;;;;;3.67;2.05;;;13.00;99.90;;;;;;5080065;27;20054;-82
2021/07/14 06:27:45;;;;;;;1.73;1.58;;;13.00;99.90;;;;;;5111358;27;20031;-83
2021/07/14 06:30:16;;;;;;;1.65;1.35;;;13.00;99.90;;;;;;5108942;27;20043;-84
2021/07/14 06:32:44;;;;;;;1.70;1.23;;;13.00;99.90;;;;;;5114253;27;20050;-84
2021/07/14 06:35:13;;;;;;;3.88;1.20;;;13.00;99.90;;;;;;5095441;27;20038;-85
2021/07/14 06:37:41;;;;;;;1.17;1.08;;;13.00;99.90;;;;;;5110847;27;20050;-86
2021/07/14 06:40:10;;;;;;;1.80;1.60;;;13.00;99.90;;;;;;5132097;27;20035;-84
2021/07/14 06:42:39;;;;;;;3.17;1.35;;;13.00;99.90;;;;;;5132644;27;20050;-85
2021/07/14 06:45:09;;;;;;;3.53;1.50;;;13.00;99.90;;;;;;5113102;27;20571;-85
2021/07/14 06:47:38;;;;;;;1.27;1.10;;;13.00;99.90;;;;;;5114285;27;20502;-85
2021/07/14 06:50:09;;;;;;;2.65;1.10;;;13.10;99.90;;;;;;5109079;28;20044;-86
2021/07/14 06:52:41;;;;;;;2.03;1.52;;;13.10;99.90;;;;;;5094212;27;20043;-85
2021/07/14 06:55:10;;;;;;;1.70;1.20;;;13.10;99.90;;;;;;5095825;27;20039;-85
2021/07/14 06:57:39;;;;;;;1.88;1.40;;;13.10;99.90;;;;;;5132920;27;20369;-86
2021/07/14 07:00:16;;;;;;;1.10;0.98;;;13.10;99.90;;;;;;5122957;27;20047;-85
2021/07/14 07:02:50;;;;;;;1.67;1.17;;;13.10;99.90;;;;;;5113359;27;20058;-85
2021/07/14 07:05:18;;;;;;;1.88;1.40;;;13.10;99.90;;;;;;5106853;27;20747;-85
2021/07/14 07:07:46;;;;;;;1.42;0.90;;;13.20;99.90;;;;;;5131943;27;20051;-84
2021/07/14 07:10:14;;;;;;;2.22;1.77;;;13.10;99.90;;;;;;5105147;28;20055;-85
2021/07/14 07:12:42;;;;;;;4.45;1.50;;;13.20;99.90;;;;;;5111641;27;20047;-86
2021/07/14 07:15:11;;;;;;;1.95;1.10;;;13.10;99.90;;;;;;5109708;28;20039;-85
2021/07/14 07:17:38;;;;;;;5.28;2.10;;;13.10;99.90;;;;;;5111780;28;20047;-85
2021/07/14 07:20:08;;;;;;;1.73;1.63;;;13.20;99.90;;;;;;5109974;27;20043;-85
2021/07/14 07:22:38;;;;;;;3.25;1.55;;;13.20;99.90;;;;;;5110955;28;20032;-86
2021/07/14 07:25:08;;;;;;;1.38;1.23;;;13.20;99.90;;;;;;5093329;28;20048;-85
2021/07/14 07:27:38;;;;;;;2.97;2.22;;;13.40;99.90;;;;;;5111073;28;20047;-85
2021/07/14 07:30:11;;;;;;;3.22;2.10;;;13.40;99.90;;;;;;5097442;28;20053;-85
2021/07/14 07:32:40;;;;;;;7.50;2.63;;;13.50;99.90;;;;;;5073280;28;20681;-86
2021/07/14 07:35:11;;;;;;;6.65;2.78;;;13.50;99.90;;;;;;5100505;28;20044;-85
2021/07/14 07:37:41;;;;;;;8.00;2.67;;;13.50;99.90;;;;;;5092563;28;20054;-86
2021/07/14 07:40:11;;;;;;;7.28;3.28;;;13.60;99.90;;;;;;5092057;28;20435;-86
2021/07/14 07:42:41;;;;;;;3.10;2.80;;;13.70;99.90;;;;;;5092802;28;20059;-85
2021/07/14 07:45:10;;;;;;;14.38;2.05;;;13.70;99.90;;;;;;5110460;28;20492;-85
2021/07/14 07:47:39;;;;;;;3.67;1.23;;;13.80;99.90;;;;;;5091768;28;20046;-85
2021/07/14 07:50:09;;;;;;;1.83;1.30;;;13.80;99.90;;;;;;5090607;28;20043;-84
2021/07/14 07:52:37;;;;;;;2.08;1.13;;;13.90;99.90;;;;;;5093196;28;20039;-85
2021/07/14 07:55:09;;;;;;;1.50;1.40;;;13.90;99.90;;;;;;5074505;28;20078;-84
2021/07/14 07:57:41;;;;;;;1.50;1.35;;;13.80;99.90;;;;;;5111090;28;20047;-85
2021/07/14 08:00:16;;;;;;;2.05;1.38;;;13.90;99.90;;;;;;5109630;27;20634;-84
2021/07/14 08:02:44;;;;;;;2.13;1.52;;;14.10;99.90;;;;;;5110218;28;20047;-85
2021/07/14 08:05:15;;;;;;;1.63;1.52;;;14.10;99.90;;;;;;5111185;28;20052;-86
2021/07/14 08:07:46;;;;;;;2.05;1.70;;;14.20;99.90;;;;;;5072399;28;20059;-86
2021/07/14 08:10:19;;;;;;;1.85;1.63;;;14.20;99.90;;;;;;5071675;28;20044;-85
2021/07/14 08:12:47;;;;;;;2.17;1.60;;;14.20;99.90;;;;;;5055447;28;20056;-87
2021/07/14 08:15:16;;;;;;;3.00;2.55;;;14.20;99.90;;;;;;5070936;28;20055;-84
2021/07/14 08:17:44;;;;;;;2.42;1.60;;;14.20;99.90;;;;;;5098527;28;20047;-86
2021/07/14 08:20:12;;;;;;;1.95;1.75;;;14.30;99.90;;;;;;5110171;28;20055;-87
2021/07/14 08:22:41;;;;;;;2.88;2.08;;;14.40;99.90;;;;;;5091590;28;20032;-86
2021/07/14 08:25:11;;;;;;;3.42;2.78;;;14.50;99.90;;;;;;5106188;28;20488;-85
2021/07/14 08:27:40;;;;;;;4.15;2.72;;;14.70;99.90;;;;;;5090670;28;20048;-84
2021/07/14 08:30:10;;;;;;;3.28;2.83;;;14.70;99.90;;;;;;5113355;28;20044;-85
2021/07/14 08:32:38;;;;;;;2.25;1.80;;;14.60;99.90;;;;;;5115268;28;20040;-86
2021/07/14 08:35:08;;;;;;;9.13;2.67;;;14.60;99.90;;;;;;5113287;28;20043;-87
2021/07/14 08:37:36;;;;;;;2.08;1.88;;;14.60;99.90;;;;;;5095611;28;20055;-87
2021/07/14 08:40:07;;;;;;;2.03;1.77;;;14.50;99.90;;;;;;5096120;28;20499;-87
2021/07/14 08:42:38;;;;;;;;;;;14.60;99.90;;;;;;5114554;28;20071;-86
2021/07/14 08:45:07;;;;;;;1.85;1.75;;;14.80;99.90;;;;;;5114048;28;19924;-87
2021/07/14 08:47:37;;;;;;;2.22;2.03;;;14.80;99.90;;;;;;5095480;28;20047;-85
2021/07/14 08:50:07;;;;;;;2.67;1.90;;;14.70;99.90;;;;;;5113708;28;20044;-86
2021/07/14 08:52:38;;;;;;;3.47;1.38;;;14.90;99.90;;;;;;5079538;28;20070;-86
2021/07/14 08:55:07;;;;;;;1.48;1.23;;;15.00;99.90;;;;;;5078335;28;20044;-86
2021/07/14 08:57:35;;;;;;;3.78;1.70;;;15.10;99.90;;;;;;5096563;28;20058;-85
2021/07/14 09:00:06;;;;;;;2.00;1.80;;;15.00;99.90;;;;;;5113189;27;20047;-87
2021/07/14 09:02:37;;;;;;;1.88;1.70;;;15.00;99.90;;;;;;5113999;28;20392;-85
2021/07/14 09:05:08;;;;;;;2.08;1.88;;;15.10;99.90;;;;;;5113691;28;20395;-85
2021/07/14 09:07:43;;;;;;;2.47;1.77;;;15.20;99.90;;;;;;5113871;28;20418;-85
2021/07/14 09:10:14;;;;;;;1.70;1.60;;;15.20;99.90;;;;;;5077776;27;20420;-87
2021/07/14 09:12:45;;;;;;;3.72;2.30;;;15.20;99.90;;;;;;5096207;28;20043;-86
2021/07/14 09:15:17;;;;;;;1.80;1.70;;;15.30;99.90;;;;;;5084432;28;20043;-85
2021/07/14 09:17:50;;;;;;;1.42;1.33;;;15.30;99.90;;;;;;5100982;28;20043;-88
2021/07/14 09:30:24;;;;;;;1.10;1.08;;;15.70;99.90;;;;;;4381769;23;20435;-89
2021/07/14 09:33:17;;;;;;;4.93;1.60;;;15.60;99.90;;;;;;4908229;29;20415;-86
2021/07/14 09:46:03;;;;;;;1.40;1.30;;;15.70;99.90;;;;;;4838247;29;20046;-89
2021/07/14 09:49:13;;;;;;;1.40;1.30;;;15.80;99.90;;;;;;4824302;29;20398;-85
2021/07/14 09:51:42;;;;;;;4.22;2.67;;;16.00;99.90;;;;;;4874698;29;20458;-88
2021/07/14 09:57:35;;;;;;;9.07;2.60;;;15.80;99.90;;;;;;4930339;29;20047;-88
2021/07/14 10:00:22;;;;;;;1.80;1.58;;;15.80;99.90;;;;;;4904425;29;20050;-89
2021/07/14 10:02:56;;;;;;;2.70;2.25;;;15.80;99.90;;;;;;4902808;29;20048;-88
2021/07/14 10:05:26;;;;;;;4.65;2.15;;;15.90;99.90;;;;;;4934625;29;20067;-88
2021/07/14 10:08:21;;;;;;;1.70;1.60;;;15.90;99.90;;;;;;4929590;29;20051;-88
2021/07/14 10:10:50;;;;;;;1.85;1.48;;;15.90;99.90;;;;;;4932803;28;20051;-89
2021/07/14 10:13:22;;;;;;;2.67;2.15;;;15.90;99.90;;;;;;4910618;29;20486;-88
2021/07/14 10:16:04;;;;;;;9.40;2.22;;;15.90;99.90;;;;;;4908933;29;20051;-87
2021/07/14 10:18:57;;;;;;;5.70;1.92;;;16.00;99.90;;;;;;4887987;29;20050;-88
2021/07/14 10:21:27;;;;;;;1.73;1.48;;;15.90;99.90;;;;;;4902826;29;20417;-88
2021/07/14 10:23:55;;;;;;;2.33;2.13;;;15.80;99.90;;;;;;4900467;29;20047;-88
2021/07/14 10:26:25;;;;;;;1.50;1.40;;;15.70;99.90;;;;;;4886377;29;20051;-88
2021/07/14 10:28:55;;;;;;;1.95;1.83;;;15.70;99.90;;;;;;4885789;29;20056;-88
2021/07/14 10:31:26;;;;;;;2.00;1.60;;;15.80;99.90;;;;;;4900668;29;20050;-87
2021/07/14 10:33:58;;;;;;;2.60;2.00;;;15.80;99.90;;;;;;4903718;28;20044;-85
2021/07/14 10:36:32;;;;;;;4.55;2.30;;;15.80;99.90;;;;;;4902984;29;20052;-87
2021/07/14 10:39:17;;;;;;;1.60;1.50;;;16.00;99.90;;;;;;4917462;29;20039;-88
2021/07/14 10:41:53;;;;;;;2.17;1.88;;;16.00;99.90;;;;;;4917345;29;20044;-89
2021/07/14 10:44:22;;;;;;;2.70;2.00;;;16.10;99.90;;;;;;4900627;29;20062;-87
2021/07/14 10:46:52;;;;;;;6.30;2.03;;;16.30;99.90;;;;;;4916857;29;20516;-88
2021/07/14 10:49:29;;;;;;;1.92;1.83;;;16.40;99.90;;;;;;4901682;29;20059;-88
2021/07/14 10:52:01;;;;;;;6.32;3.90;;;16.40;99.90;;;;;;4916549;29;20043;-88
2021/07/14 10:54:32;;;;;;;2.47;2.25;;;16.30;99.90;;;;;;4919536;29;20401;-89
2021/07/14 10:57:01;;;;;;;1.70;1.60;;;16.20;99.90;;;;;;4920929;29;20047;-88
2021/07/14 10:59:30;;;;;;;4.88;2.85;;;16.20;99.90;;;;;;4932074;29;20572;-88
2021/07/14 11:01:57;;;;;;;2.10;2.00;;;16.20;99.90;;;;;;4885563;29;20074;-88
2021/07/14 11:04:28;;;;;;;2.22;1.88;;;16.60;99.90;;;;;;4914151;29;20055;-88
2021/07/14 11:06:59;;;;;;;1.50;1.40;;;16.70;99.90;;;;;;4935282;29;20051;-82
2021/07/14 11:09:32;;;;;;;4.65;2.10;;;16.80;99.90;;;;;;4953303;29;20058;-81
2021/07/14 11:12:02;;;;;;;2.53;1.58;;;16.90;99.90;;;;;;4952659;28;20078;-84
2021/07/14 11:14:41;;;;;;;2.83;1.42;;;17.00;99.90;;;;;;4915613;29;20036;-82
2021/07/14 11:17:10;;;;;;;3.33;1.80;;;16.90;99.90;;;;;;4946763;29;20393;-82
2021/07/14 11:19:47;;;;;;;1.48;1.15;;;16.90;99.90;;;;;;4947577;28;20056;-82
2021/07/14 11:22:17;;;;;;;2.60;2.17;;;16.90;99.90;;;;;;4933364;29;20052;-83
2021/07/14 11:24:46;;;;;;;1.45;1.35;;;17.00;99.90;;;;;;4933882;29;20090;-83
2021/07/14 11:27:26;;;;;;;1.75;1.42;;;17.00;99.90;;;;;;4916142;29;20052;-83
2021/07/14 11:30:19;;;;;;;1.23;1.10;;;17.10;99.90;;;;;;4914334;29;20383;-81
2021/07/14 11:32:49;;;;;;;3.95;1.67;;;17.10;99.90;;;;;;4885621;29;20044;-81
2021/07/14 11:35:49;;;;;;;3.42;1.30;;;17.40;99.90;;;;;;4916718;29;20050;-83
2021/07/14 11:38:21;;;;;;;2.40;1.10;;;17.40;99.90;;;;;;4894535;28;21215;-86
2021/07/14 11:40:52;;;;;;;2.05;1.85;;;17.60;99.90;;;;;;4916652;29;20497;-86
2021/07/14 11:43:23;;;;;;;2.60;1.80;;;17.60;99.90;;;;;;4900293;29;20048;-84
2021/07/14 11:45:56;;;;;;;3.22;1.13;;;17.60;99.90;;;;;;4900700;29;20504;-85
2021/07/14 11:48:27;;;;;;;2.80;1.73;;;17.60;99.90;;;;;;4885195;29;20040;-86
2021/07/14 11:51:03;;;;;;;1.95;1.67;;;17.50;99.90;;;;;;4899866;29;20044;-85
2021/07/14 11:53:39;;;;;;;2.65;2.45;;;17.20;99.90;;;;;;4941219;29;20055;-85
2021/07/14 11:56:09;;;;;;;1.42;1.33;;;17.20;99.90;;;;;;4942463;29;20059;-84
2021/07/14 11:58:50;;;;;;;1.52;1.42;;;17.10;99.90;;;;;;4932560;29;20040;-81
2021/07/14 12:01:22;;;;;;;3.78;2.17;;;17.10;99.90;;;;;;4931239;29;20051;-82
2021/07/14 12:03:59;;;;;;;3.70;2.25;;;17.20;99.90;;;;;;4932334;28;20048;-82
2021/07/14 12:06:34;;;;;;;4.05;2.55;;;17.30;99.90;;;;;;4932781;29;20493;-84
2021/07/14 12:09:13;;;;;;;2.15;2.03;;;17.30;99.90;;;;;;4933095;29;20062;-84
2021/07/14 12:11:44;;;;;;;9.10;2.03;;;17.30;99.90;;;;;;4931175;29;20421;-84
2021/07/14 12:14:16;;;;;;;2.88;2.55;;;17.30;99.90;;;;;;4932086;29;20066;-84
2021/07/14 12:16:50;;;;;;;3.05;2.50;;;17.20;99.90;;;;;;4932965;29;20048;-84
2021/07/14 12:19:21;;;;;;;4.68;2.83;;;17.20;99.90;;;;;;4952087;28;20066;-83
2021/07/14 12:21:50;;;;;;;4.00;3.40;;;17.30;99.90;;;;;;4952480;29;20047;-83
2021/07/14 12:24:37;;;;;;;2.65;2.25;;;17.20;99.90;;;;;;4933517;29;20035;-82
2021/07/14 12:27:26;;;;;;;2.25;1.67;;;17.10;99.90;;;;;;4934043;28;20366;-84
2021/07/14 12:29:59;;;;;;;1.80;1.70;;;16.80;99.90;;;;;;4916355;29;20071;-83
2021/07/14 12:32:31;;;;;;;3.28;2.17;;;16.70;99.90;;;;;;4915079;29;20050;-84
2021/07/14 12:35:00;;;;;;;2.17;1.98;;;16.60;99.90;;;;;;4900335;29;20408;-84
2021/07/14 12:37:28;;;;;;;3.55;2.00;;;16.50;99.90;;;;;;4900240;29;20064;-85
2021/07/14 12:39:56;;;;;;;1.63;1.52;;;16.40;99.90;;;;;;4898205;29;20048;-85
2021/07/14 12:42:24;;;;;;;2.25;2.08;;;16.40;99.90;;;;;;4915880;29;20047;-84
2021/07/14 12:44:52;;;;;;;2.40;1.95;;;16.40;99.90;;;;;;4931448;29;20047;-84
2021/07/14 12:47:22;;;;;;;1.25;1.15;;;16.40;99.90;;;;;;4915264;29;20044;-84
2021/07/14 12:49:52;;;;;;;2.42;1.98;;;16.30;99.90;;;;;;4931805;29;20056;-83
2021/07/14 12:52:21;;;;;;;1.27;1.17;;;16.30;99.90;;;;;;4931819;29;20417;-83
2021/07/14 12:54:57;;;;;;;1.98;1.63;;;16.30;99.90;;;;;;4932371;29;20527;-83
2021/07/14 12:57:30;;;;;;;1.58;1.48;;;16.20;99.90;;;;;;4932997;29;20044;-84
2021/07/14 13:00:06;;;;;;;2.25;2.00;;;16.20;99.90;;;;;;4931004;28;20055;-84
2021/07/14 13:02:58;;;;;;;2.15;1.35;;;16.20;99.90;;;;;;4932740;29;20051;-83
2021/07/14 13:05:31;;;;;;;4.28;2.00;;;16.10;99.90;;;;;;4932013;29;20478;-82
2021/07/14 13:08:08;;;;;;;4.78;2.30;;;16.10;99.90;;;;;;4932738;29;20050;-83
2021/07/14 13:10:36;;;;;;;1.83;1.45;;;16.10;99.90;;;;;;4930601;28;20043;-83
2021/07/14 13:13:09;;;;;;;3.35;1.48;;;16.00;99.90;;;;;;4932054;29;20094;-83
2021/07/14 13:15:38;;;;;;;1.60;1.33;;;16.00;99.90;;;;;;4918002;29;20062;-84
2021/07/14 13:18:09;;;;;;;4.93;1.77;;;16.00;99.90;;;;;;4913306;28;20042;-83
2021/07/14 13:20:46;;;;;;;2.78;1.80;;;15.90;99.90;;;;;;4922308;29;20444;-83
2021/07/14 13:23:30;;;;;;;2.80;2.60;;;15.90;99.90;;;;;;4937615;29;20047;-84
2021/07/14 13:26:02;;;;;;;1.90;1.70;;;15.90;99.90;;;;;;4921781;29;20710;-84
2021/07/14 13:28:32;;;;;;;3.15;2.45;;;15.90;99.90;;;;;;4955298;29;20050;-84
2021/07/14 13:31:04;;;;;;;3.28;2.28;;;15.90;99.90;;;;;;4918540;29;20054;-84
2021/07/14 13:33:38;;;;;;;3.47;2.20;;;15.90;99.90;;;;;;4903857;29;20058;-84
2021/07/14 13:36:12;;;;;;;6.80;2.58;;;15.90;99.90;;;;;;4909503;29;20044;-84
2021/07/14 13:38:56;;;;;;;2.30;2.20;;;15.80;99.90;;;;;;4912513;29;20044;-85
2021/07/14 13:41:33;;;;;;;3.35;2.90;;;15.80;99.90;;;;;;4899532;29;20055;-83
2021/07/14 13:44:11;;;;;;;2.42;2.22;;;15.80;99.90;;;;;;4914711;29;20048;-83
2021/07/14 13:46:39;;;;;;;3.42;2.80;;;15.70;99.90;;;;;;4916272;29;20532;-84